Time;durP1;ratioP1;P1;durP2;ratioP2;P2;SDS_P1;SDS_P2;PMS_P1;PMS_P2;Temp;Humidity;BMP_temperature;BMP_pressure;BME280_temperature;BME280_humidity;BME280_pressure;Samples;Min_cycle;Max_cycle;Signal;HPM_P1;HPM_P2
2023/12/13 00:01:22;;;;;;;6.93;1.27;;;6.90;99.90;;;;;;5009733;28;20061;-86
2023/12/13 00:04:15;;;;;;;1.27;0.90;;;6.80;99.90;;;;;;5009089;28;20049;-81
2023/12/13 00:07:03;;;;;;;1.98;1.10;;;6.70;99.90;;;;;;4997663;28;20057;-84
2023/12/13 00:09:51;;;;;;;3.25;1.13;;;6.70;99.90;;;;;;5010210;28;20139;-86
2023/12/13 00:12:38;;;;;;;5.40;1.08;;;6.70;99.90;;;;;;4992963;28;20153;-86
2023/12/13 00:15:25;;;;;;;3.17;1.33;;;6.60;99.90;;;;;;5012654;28;20042;-81
2023/12/13 00:18:15;;;;;;;2.97;0.93;;;6.60;99.90;;;;;;5013114;28;20050;-86
2023/12/13 00:21:20;;;;;;;2.22;1.10;;;6.50;99.90;;;;;;5013719;28;20042;-84
2023/12/13 00:24:08;;;;;;;6.57;1.33;;;6.50;99.90;;;;;;5008586;28;20042;-86
2023/12/13 00:26:56;;;;;;;2.00;1.00;;;6.50;99.90;;;;;;5015829;28;20057;-87
2023/12/13 00:29:43;;;;;;;3.22;1.17;;;6.40;99.90;;;;;;4997894;28;20050;-86
2023/12/13 00:32:35;;;;;;;4.80;1.52;;;6.30;99.90;;;;;;5011741;28;20064;-85
2023/12/13 00:35:25;;;;;;;5.72;1.58;;;6.30;99.90;;;;;;5004533;28;20046;-85
2023/12/13 00:38:12;;;;;;;3.40;1.30;;;6.30;99.90;;;;;;5009939;28;20053;-84
2023/12/13 00:41:00;;;;;;;3.13;1.45;;;6.20;99.90;;;;;;5005572;28;20093;-89
2023/12/13 00:43:47;;;;;;;3.38;1.20;;;6.20;99.90;;;;;;5008112;28;20060;-86
2023/12/13 00:46:34;;;;;;;4.07;1.35;;;6.10;99.90;;;;;;5009327;28;20427;-88
2023/12/13 00:49:21;;;;;;;4.57;1.38;;;6.00;99.90;;;;;;5001599;28;20057;-87
2023/12/13 00:52:09;;;;;;;4.43;1.20;;;6.10;99.90;;;;;;5007333;28;20398;-86
2023/12/13 00:54:56;;;;;;;4.20;1.25;;;6.00;99.90;;;;;;5010189;28;20046;-81
2023/12/13 00:57:43;;;;;;;4.57;1.23;;;6.00;99.90;;;;;;5013782;28;20351;-86
2023/12/13 01:00:33;;;;;;;4.47;1.10;;;6.00;99.90;;;;;;5011073;28;20061;-86
2023/12/13 01:03:25;;;;;;;8.55;1.88;;;6.00;99.90;;;;;;4994677;28;20085;-83
2023/12/13 01:06:14;;;;;;;4.55;1.42;;;6.10;99.90;;;;;;5006578;28;20048;-86
2023/12/13 01:09:02;;;;;;;6.82;1.77;;;6.10;99.90;;;;;;5012998;28;20045;-84
2023/12/13 01:11:49;;;;;;;3.97;1.40;;;6.00;99.90;;;;;;5006366;28;20039;-86
2023/12/13 01:14:36;;;;;;;10.10;1.65;;;6.00;99.90;;;;;;5008683;28;20052;-89
2023/12/13 01:17:23;;;;;;;6.22;1.15;;;5.90;99.90;;;;;;4995764;28;20072;-86
2023/12/13 01:20:11;;;;;;;4.97;1.20;;;5.80;99.90;;;;;;5008452;28;20072;-88
2023/12/13 01:22:58;;;;;;;4.40;1.42;;;5.80;99.90;;;;;;5019402;28;20143;-88
2023/12/13 01:25:48;;;;;;;3.35;1.42;;;5.80;99.90;;;;;;5008766;28;20452;-87
2023/12/13 01:28:35;;;;;;;4.55;1.10;;;5.80;99.90;;;;;;5010119;28;20387;-87
2023/12/13 01:31:23;;;;;;;5.70;1.40;;;5.80;99.90;;;;;;5011920;28;20046;-86
2023/12/13 01:34:14;;;;;;;3.65;1.42;;;5.70;99.90;;;;;;5009991;28;20070;-87
2023/12/13 01:37:02;;;;;;;3.03;1.00;;;5.70;99.90;;;;;;5002505;28;20058;-86
2023/12/13 01:39:49;;;;;;;3.72;0.98;;;5.60;99.90;;;;;;5014430;28;20192;-83
2023/12/13 01:42:38;;;;;;;2.80;1.13;;;5.60;99.90;;;;;;5012210;28;20056;-87
2023/12/13 01:45:25;;;;;;;3.97;1.20;;;5.60;99.90;;;;;;5002591;28;20459;-87
2023/12/13 01:48:12;;;;;;;3.00;1.13;;;5.60;99.90;;;;;;5012082;28;20148;-88
2023/12/13 01:51:00;;;;;;;3.70;1.27;;;5.60;99.90;;;;;;5005669;28;20045;-88
2023/12/13 01:53:49;;;;;;;7.45;2.17;;;5.50;99.90;;;;;;4986809;28;20128;-88
2023/12/13 01:56:42;;;;;;;3.13;1.00;;;5.50;99.90;;;;;;4996507;28;20048;-86
2023/12/13 01:59:33;;;;;;;2.30;1.33;;;5.50;99.90;;;;;;5009428;28;20060;-83
2023/12/13 02:02:22;;;;;;;9.88;1.50;;;5.60;99.90;;;;;;5013749;28;20041;-86
2023/12/13 02:05:14;;;;;;;5.18;1.42;;;5.50;99.90;;;;;;5008490;28;20038;-88
2023/12/13 02:08:03;;;;;;;2.70;1.30;;;5.50;99.90;;;;;;5007685;28;20113;-86
2023/12/13 02:10:50;;;;;;;8.30;1.50;;;5.50;99.90;;;;;;5009328;28;20081;-85
2023/12/13 02:13:41;;;;;;;3.03;1.20;;;5.50;99.90;;;;;;5006560;28;20637;-88
2023/12/13 02:16:28;;;;;;;5.03;1.20;;;5.60;99.90;;;;;;5012581;28;20057;-87
2023/12/13 02:19:18;;;;;;;6.60;1.40;;;5.60;99.90;;;;;;5009452;28;20042;-88
2023/12/13 02:22:07;;;;;;;6.40;1.50;;;5.60;99.90;;;;;;5009815;28;20077;-88
2023/12/13 02:24:58;;;;;;;4.47;1.67;;;5.60;99.90;;;;;;5007059;28;20108;-89
2023/12/13 02:27:46;;;;;;;9.15;1.20;;;5.70;99.90;;;;;;5017520;28;20041;-82
2023/12/13 02:30:34;;;;;;;6.22;1.40;;;5.70;99.90;;;;;;5013258;28;20046;-87
2023/12/13 02:33:26;;;;;;;3.22;1.30;;;5.80;99.90;;;;;;5014458;28;20107;-86
2023/12/13 02:36:16;;;;;;;4.45;1.10;;;5.80;99.90;;;;;;5014686;28;20137;-88
2023/12/13 02:39:09;;;;;;;7.10;1.52;;;5.80;99.90;;;;;;5010199;28;20057;-87
2023/12/13 02:41:58;;;;;;;9.00;1.45;;;5.80;99.90;;;;;;4998187;28;20417;-88
2023/12/13 02:44:48;;;;;;;2.55;1.38;;;5.70;99.90;;;;;;5011577;28;20053;-87
2023/12/13 02:47:41;;;;;;;3.50;1.30;;;5.70;99.90;;;;;;5014006;28;20041;-87
2023/12/13 02:50:28;;;;;;;5.93;1.50;;;5.60;99.90;;;;;;4996922;28;20046;-87
2023/12/13 02:53:15;;;;;;;6.70;1.40;;;5.60;99.90;;;;;;5015167;28;20121;-85
2023/12/13 02:56:03;;;;;;;5.78;1.25;;;5.60;99.90;;;;;;5013735;28;20056;-86
2023/12/13 02:58:54;;;;;;;4.50;1.40;;;5.60;99.90;;;;;;5011112;28;20157;-84
2023/12/13 03:01:44;;;;;;;4.10;1.77;;;5.50;99.90;;;;;;5003329;28;20475;-86
2023/12/13 03:04:31;;;;;;;7.85;1.77;;;5.50;99.90;;;;;;4997710;28;20305;-86
2023/12/13 03:07:19;;;;;;;5.35;1.58;;;5.50;99.90;;;;;;5015302;28;20392;-87
2023/12/13 03:10:07;;;;;;;4.25;1.30;;;5.50;99.90;;;;;;4999891;28;20037;-86
2023/12/13 03:12:55;;;;;;;2.05;1.38;;;5.50;99.90;;;;;;5019156;28;20089;-86
2023/12/13 03:15:42;;;;;;;4.93;1.38;;;5.60;99.90;;;;;;5019182;28;20068;-86
2023/12/13 03:18:32;;;;;;;4.85;1.20;;;5.60;99.90;;;;;;5014113;28;20477;-87
2023/12/13 03:21:19;;;;;;;4.60;1.23;;;5.60;99.90;;;;;;5021176;28;20053;-81
2023/12/13 03:24:06;;;;;;;3.03;1.17;;;5.60;99.90;;;;;;5009325;28;20054;-87
2023/12/13 03:26:54;;;;;;;2.10;1.10;;;5.60;99.90;;;;;;5020900;28;20050;-86
2023/12/13 03:29:41;;;;;;;3.75;1.33;;;5.70;99.90;;;;;;4999892;28;20089;-86
2023/12/13 03:32:28;;;;;;;4.47;1.75;;;5.80;99.90;;;;;;5009646;28;20111;-86
2023/12/13 03:35:15;;;;;;;4.65;1.50;;;5.80;99.90;;;;;;5010116;28;20050;-87
2023/12/13 03:38:06;;;;;;;4.53;1.52;;;5.80;99.90;;;;;;5007589;28;20056;-86
2023/12/13 03:40:53;;;;;;;8.52;1.55;;;5.70;99.90;;;;;;4998415;28;20065;-83
2023/12/13 03:43:40;;;;;;;3.35;1.25;;;5.70;99.90;;;;;;5002689;28;20049;-87
2023/12/13 03:46:30;;;;;;;5.30;1.20;;;5.60;99.90;;;;;;4994694;28;20038;-87
2023/12/13 03:49:17;;;;;;;4.03;2.00;;;5.60;99.90;;;;;;5002175;28;20339;-86
2023/12/13 03:52:07;;;;;;;2.60;1.27;;;5.50;99.90;;;;;;5009983;28;20046;-86
2023/12/13 03:54:54;;;;;;;4.53;1.10;;;5.50;99.90;;;;;;5022437;28;20133;-81
2023/12/13 03:57:43;;;;;;;1.85;1.00;;;5.40;99.90;;;;;;5012847;28;20637;-86
2023/12/13 04:00:31;;;;;;;2.28;1.30;;;5.30;99.90;;;;;;5015402;28;20445;-85
2023/12/13 04:03:21;;;;;;;8.00;1.33;;;5.30;99.90;;;;;;5013255;28;20041;-86
2023/12/13 04:06:10;;;;;;;4.53;1.20;;;5.20;99.90;;;;;;5011756;28;20046;-82
2023/12/13 04:08:57;;;;;;;3.83;1.40;;;5.10;99.90;;;;;;5016960;28;20120;-85
2023/12/13 04:11:45;;;;;;;5.05;1.35;;;5.00;99.90;;;;;;5014582;28;20450;-86
2023/12/13 04:14:32;;;;;;;6.00;1.55;;;5.00;99.90;;;;;;4990286;28;20038;-86
2023/12/13 04:17:19;;;;;;;2.45;1.35;;;5.00;99.90;;;;;;5004981;28;20463;-86
2023/12/13 04:20:07;;;;;;;2.92;1.20;;;5.00;99.90;;;;;;5012799;28;20107;-86
2023/12/13 04:22:54;;;;;;;5.50;1.45;;;5.10;99.90;;;;;;5009499;28;20463;-87
2023/12/13 04:25:44;;;;;;;3.90;1.05;;;5.30;99.90;;;;;;5005772;28;20054;-85
2023/12/13 04:28:31;;;;;;;2.33;1.13;;;5.50;99.90;;;;;;5001971;28;20097;-84
2023/12/13 04:31:19;;;;;;;1.52;1.17;;;5.60;99.90;;;;;;5015325;28;20057;-80
2023/12/13 04:34:07;;;;;;;1.85;1.05;;;5.70;99.90;;;;;;5003390;28;20107;-84
2023/12/13 04:36:56;;;;;;;1.55;1.02;;;5.80;99.90;;;;;;4995461;28;20054;-86
2023/12/13 04:39:45;;;;;;;2.45;0.95;;;5.90;99.90;;;;;;5014670;28;20046;-82
2023/12/13 04:42:33;;;;;;;1.85;0.70;;;6.00;99.90;;;;;;5016474;28;20050;-87
2023/12/13 04:45:20;;;;;;;4.63;1.00;;;6.00;99.90;;;;;;5014418;28;20046;-87
2023/12/13 04:48:07;;;;;;;4.20;1.60;;;6.00;99.90;;;;;;4991655;28;20088;-85
2023/12/13 04:50:55;;;;;;;1.00;0.80;;;6.00;99.90;;;;;;5010766;28;20042;-85
2023/12/13 04:53:42;;;;;;;1.42;0.90;;;5.90;99.90;;;;;;5007901;28;20454;-87
2023/12/13 04:56:32;;;;;;;2.15;0.90;;;5.90;99.90;;;;;;5013305;28;20054;-87
2023/12/13 04:59:19;;;;;;;3.50;0.93;;;6.00;99.90;;;;;;5015626;28;20362;-87
2023/12/13 05:02:06;;;;;;;5.55;1.00;;;6.10;99.90;;;;;;5005452;28;20392;-87
2023/12/13 05:04:53;;;;;;;2.83;1.05;;;6.00;99.90;;;;;;5014148;28;20042;-86
2023/12/13 05:07:41;;;;;;;3.25;1.10;;;6.00;99.90;;;;;;4991620;28;20050;-88
2023/12/13 05:10:30;;;;;;;1.20;1.00;;;6.10;99.90;;;;;;5010764;28;20048;-88
2023/12/13 05:13:20;;;;;;;2.30;1.23;;;6.10;99.90;;;;;;5008372;28;20070;-87
2023/12/13 05:16:08;;;;;;;4.40;0.90;;;6.20;99.90;;;;;;5008164;28;20042;-81
2023/12/13 05:18:55;;;;;;;1.95;1.00;;;6.20;99.90;;;;;;4997500;28;20538;-86
2023/12/13 05:21:42;;;;;;;1.92;1.48;;;6.30;99.90;;;;;;5005758;28;20038;-87
2023/12/13 05:24:30;;;;;;;0.95;0.85;;;6.30;99.90;;;;;;5013051;28;20054;-82
2023/12/13 05:27:19;;;;;;;2.92;1.35;;;6.30;99.90;;;;;;5010489;28;20042;-86
2023/12/13 05:30:18;;;;;;;1.65;1.10;;;6.30;99.90;;;;;;5009750;28;20042;-89
2023/12/13 05:33:07;;;;;;;5.03;1.48;;;6.30;99.90;;;;;;5010753;28;20342;-86
2023/12/13 05:35:54;;;;;;;3.28;1.40;;;6.30;99.90;;;;;;5014738;28;20377;-89
2023/12/13 05:38:46;;;;;;;2.75;1.10;;;6.30;99.90;;;;;;5009486;28;20558;-87
2023/12/13 05:41:36;;;;;;;1.52;1.10;;;6.30;99.90;;;;;;5011880;28;20130;-88
2023/12/13 05:44:23;;;;;;;2.97;1.63;;;6.30;99.90;;;;;;5009934;28;20046;-86
2023/12/13 05:47:10;;;;;;;4.25;1.45;;;6.30;99.90;;;;;;5005907;28;20050;-86
2023/12/13 05:49:57;;;;;;;5.68;1.80;;;6.20;99.90;;;;;;5000417;28;20050;-85
2023/12/13 05:52:45;;;;;;;1.48;1.33;;;6.20;99.90;;;;;;5013506;28;20037;-88
2023/12/13 05:55:33;;;;;;;3.47;1.30;;;6.20;99.90;;;;;;5008901;28;20387;-88
2023/12/13 05:58:20;;;;;;;1.67;1.13;;;6.30;99.90;;;;;;4996630;28;20046;-81
2023/12/13 06:01:07;;;;;;;6.22;1.10;;;6.30;99.90;;;;;;4997820;28;20053;-84
2023/12/13 06:03:54;;;;;;;3.38;1.02;;;6.40;99.90;;;;;;4997018;28;20133;-83
2023/12/13 06:06:45;;;;;;;5.60;2.13;;;6.40;99.90;;;;;;5011959;28;20026;-81
2023/12/13 06:09:33;;;;;;;3.10;1.00;;;6.40;99.90;;;;;;5012424;28;20052;-88
2023/12/13 06:12:23;;;;;;;3.22;1.60;;;6.40;99.90;;;;;;5011531;28;20347;-88
2023/12/13 06:15:13;;;;;;;1.67;1.13;;;6.40;99.90;;;;;;4998074;28;20165;-87
2023/12/13 06:18:03;;;;;;;2.55;1.45;;;6.40;99.90;;;;;;5012483;28;20060;-87
2023/12/13 06:20:53;;;;;;;3.05;1.30;;;6.50;99.90;;;;;;4986161;28;20097;-84
2023/12/13 06:23:42;;;;;;;2.95;1.35;;;6.50;99.90;;;;;;5014383;28;20073;-86
2023/12/13 06:26:29;;;;;;;2.03;0.95;;;6.50;99.90;;;;;;5012569;28;20049;-87
2023/12/13 06:29:31;;;;;;;6.07;1.10;;;6.50;99.90;;;;;;5008642;28;20053;-87
2023/12/13 06:32:19;;;;;;;3.47;1.00;;;6.50;99.90;;;;;;5008046;28;20060;-87
2023/12/13 06:35:09;;;;;;;2.03;1.23;;;6.50;99.90;;;;;;5005413;28;20057;-85
2023/12/13 06:37:56;;;;;;;4.72;1.20;;;6.50;99.90;;;;;;5008214;28;20050;-89
2023/12/13 06:40:44;;;;;;;5.10;1.52;;;6.50;99.90;;;;;;5005536;28;20050;-88
2023/12/13 06:43:34;;;;;;;2.60;1.10;;;6.50;99.90;;;;;;5007509;28;20054;-86
2023/12/13 06:46:22;;;;;;;8.48;1.70;;;6.50;99.90;;;;;;5014002;28;20041;-83
2023/12/13 06:49:14;;;;;;;4.40;1.50;;;6.40;99.90;;;;;;4994103;28;20185;-85
2023/12/13 06:52:07;;;;;;;10.85;5.22;;;6.40;99.90;;;;;;5017781;28;20052;-87
2023/12/13 06:55:00;;;;;;;5.18;3.40;;;6.30;99.90;;;;;;5012938;28;20053;-87
2023/12/13 06:57:58;;;;;;;1.85;1.60;;;6.30;99.90;;;;;;4996080;28;20046;-87
2023/12/13 07:00:54;;;;;;;3.13;1.65;;;6.30;99.90;;;;;;5008247;28;20137;-80
2023/12/13 07:03:47;;;;;;;4.13;1.58;;;6.30;99.90;;;;;;5009429;28;20100;-87
2023/12/13 07:06:35;;;;;;;3.13;1.50;;;6.20;99.90;;;;;;5010040;28;20038;-85
2023/12/13 07:09:31;;;;;;;3.47;1.90;;;6.20;99.90;;;;;;5011847;28;20038;-84
2023/12/13 07:12:21;;;;;;;1.95;1.70;;;6.20;99.90;;;;;;5011521;28;20038;-81
2023/12/13 07:15:14;;;;;;;6.05;1.63;;;6.20;99.90;;;;;;5016272;28;20045;-84
2023/12/13 07:18:06;;;;;;;4.97;1.70;;;6.20;99.90;;;;;;5000308;28;20069;-85
2023/12/13 07:20:53;;;;;;;2.38;1.80;;;6.20;99.90;;;;;;5011738;28;20133;-84
2023/12/13 07:23:42;;;;;;;4.55;1.90;;;6.30;99.90;;;;;;5000831;28;20046;-84
2023/12/13 07:26:32;;;;;;;9.45;4.63;;;6.20;99.90;;;;;;5000219;28;20054;-84
2023/12/13 07:29:29;;;;;;;6.57;2.22;;;6.20;99.90;;;;;;5012222;28;20034;-85
2023/12/13 07:32:16;;;;;;;4.68;2.08;;;6.30;99.90;;;;;;5017849;28;20042;-82
2023/12/13 07:35:06;;;;;;;5.20;2.22;;;6.30;99.90;;;;;;5018300;28;20081;-84
2023/12/13 07:37:55;;;;;;;3.33;2.03;;;6.20;99.90;;;;;;5014394;28;20366;-84
2023/12/13 07:40:47;;;;;;;5.00;1.70;;;6.20;99.90;;;;;;5014771;28;20052;-83
2023/12/13 07:43:39;;;;;;;3.33;1.67;;;6.30;99.90;;;;;;5007142;28;20472;-85
2023/12/13 07:46:26;;;;;;;4.18;1.90;;;6.30;99.90;;;;;;5011072;28;20038;-84
2023/12/13 07:49:14;;;;;;;3.55;1.70;;;6.30;99.90;;;;;;5006332;28;20192;-86
2023/12/13 07:52:04;;;;;;;5.03;2.03;;;6.40;99.90;;;;;;5022759;28;20042;-81
2023/12/13 07:54:52;;;;;;;4.40;1.48;;;6.40;99.90;;;;;;5026838;28;20042;-86
2023/12/13 07:57:39;;;;;;;4.05;2.10;;;6.40;99.90;;;;;;5026011;28;20042;-87
2023/12/13 08:00:27;;;;;;;35.92;13.30;;;6.40;99.90;;;;;;5015757;28;20054;-83
2023/12/13 08:03:15;;;;;;;8.82;3.35;;;6.40;99.90;;;;;;5011723;28;20046;-82
2023/12/13 08:06:18;;;;;;;6.90;2.50;;;6.40;99.90;;;;;;5016729;28;20081;-82
2023/12/13 08:09:09;;;;;;;;;;;6.40;99.90;;;;;;5013017;28;20076;-85
2023/12/13 08:12:01;;;;;;;4.55;1.88;;;6.40;99.90;;;;;;5014815;28;20274;-83
2023/12/13 08:14:48;;;;;;;6.40;2.65;;;6.40;99.90;;;;;;4996907;28;20461;-82
2023/12/13 08:17:36;;;;;;;7.38;2.20;;;6.40;99.90;;;;;;5014482;28;20053;-83
2023/12/13 08:20:29;;;;;;;7.20;2.72;;;6.40;99.90;;;;;;5000321;28;20057;-84
2023/12/13 08:23:21;;;;;;;2.67;2.35;;;6.30;99.90;;;;;;5013842;28;20054;-84
2023/12/13 08:26:12;;;;;;;10.40;2.90;;;6.30;99.90;;;;;;5007860;28;20047;-85
2023/12/13 08:29:00;;;;;;;7.15;2.35;;;6.30;99.90;;;;;;4996460;28;20046;-85
2023/12/13 08:31:53;;;;;;;9.52;2.78;;;6.30;99.90;;;;;;5013848;28;20057;-86
2023/12/13 08:34:41;;;;;;;7.28;2.55;;;6.40;99.90;;;;;;5008751;28;20050;-83
2023/12/13 08:37:29;;;;;;;6.80;2.10;;;6.40;99.90;;;;;;4997508;28;20050;-85
2023/12/13 08:40:18;;;;;;;7.88;2.65;;;6.40;99.90;;;;;;5012698;28;20052;-85
2023/12/13 08:43:08;;;;;;;4.78;2.13;;;6.40;99.90;;;;;;5000498;28;20042;-81
2023/12/13 08:45:55;;;;;;;9.30;2.78;;;6.40;99.90;;;;;;5013225;28;20386;-80
2023/12/13 08:48:45;;;;;;;10.77;2.60;;;6.40;99.90;;;;;;5015900;28;20042;-86
2023/12/13 08:51:36;;;;;;;9.35;2.70;;;6.50;99.90;;;;;;5011738;28;20049;-84
2023/12/13 08:54:24;;;;;;;8.23;3.35;;;6.50;99.90;;;;;;4998696;28;20046;-78
2023/12/13 08:57:14;;;;;;;7.00;3.42;;;6.60;99.90;;;;;;5016058;28;20421;-84
2023/12/13 09:00:01;;;;;;;5.82;2.92;;;6.70;99.90;;;;;;5010002;28;20053;-85
2023/12/13 09:02:57;;;;;;;10.35;2.92;;;6.80;99.90;;;;;;5004766;28;20049;-84
2023/12/13 09:05:47;;;;;;;5.78;2.95;;;6.90;99.90;;;;;;5006259;28;20050;-83
2023/12/13 09:08:35;;;;;;;4.68;2.50;;;7.00;99.90;;;;;;4994814;28;20043;-85
2023/12/13 09:11:24;;;;;;;8.30;2.72;;;7.10;99.90;;;;;;5008500;28;20135;-86
2023/12/13 09:14:12;;;;;;;7.32;2.50;;;7.10;99.90;;;;;;5013462;28;20050;-85
2023/12/13 09:17:01;;;;;;;7.15;2.45;;;7.10;99.90;;;;;;5006124;28;20054;-85
2023/12/13 09:19:51;;;;;;;8.15;2.58;;;7.10;99.90;;;;;;5011360;28;20108;-85
2023/12/13 09:22:38;;;;;;;8.63;2.60;;;7.10;99.90;;;;;;5012432;28;20120;-86
2023/12/13 09:25:26;;;;;;;9.13;2.97;;;7.00;99.90;;;;;;5014554;28;20056;-85
2023/12/13 09:28:16;;;;;;;6.35;2.78;;;7.00;99.90;;;;;;5013089;28;20030;-87
2023/12/13 09:31:07;;;;;;;4.97;2.17;;;7.10;99.90;;;;;;5015475;28;20042;-81
2023/12/13 09:33:58;;;;;;;6.70;2.65;;;7.10;99.90;;;;;;5012181;28;20050;-82
2023/12/13 09:36:46;;;;;;;12.50;3.95;;;7.10;99.90;;;;;;5016339;28;20375;-85
2023/12/13 09:39:49;;;;;;;12.05;3.38;;;7.10;99.90;;;;;;5011182;28;20132;-85
2023/12/13 09:42:50;;;;;;;8.65;2.40;;;7.20;99.90;;;;;;5009892;28;20041;-84
2023/12/13 09:45:40;;;;;;;5.30;2.33;;;7.20;99.90;;;;;;5012745;28;20046;-79
2023/12/13 09:48:30;;;;;;;6.20;2.67;;;7.20;99.90;;;;;;5009010;28;20061;-86
2023/12/13 09:51:30;;;;;;;8.10;3.22;;;7.10;99.90;;;;;;5010425;28;20038;-86
2023/12/13 09:54:20;;;;;;;12.82;3.30;;;7.10;99.90;;;;;;5017068;28;20046;-86
2023/12/13 09:57:07;;;;;;;7.47;2.80;;;7.00;99.90;;;;;;5010970;28;20048;-84
2023/12/13 09:59:59;;;;;;;8.43;2.42;;;7.00;99.90;;;;;;5008807;28;20049;-86
2023/12/13 10:02:49;;;;;;;8.30;4.10;;;6.90;99.90;;;;;;5008777;28;20057;-86
2023/12/13 10:05:40;;;;;;;7.28;4.32;;;6.90;99.90;;;;;;5013923;28;20046;-86
2023/12/13 10:08:35;;;;;;;8.88;3.78;;;6.90;99.90;;;;;;4995053;28;20077;-86
2023/12/13 10:11:24;;;;;;;9.13;2.60;;;6.90;99.90;;;;;;5012210;28;20042;-87
2023/12/13 10:14:13;;;;;;;12.32;3.00;;;6.90;99.90;;;;;;4997332;28;20356;-85
2023/12/13 10:17:01;;;;;;;11.27;3.17;;;6.90;99.90;;;;;;5025928;28;20054;-85
2023/12/13 10:20:19;;;;;;;9.88;3.33;;;6.90;99.90;;;;;;5010015;28;20053;-84
2023/12/13 10:23:12;;;;;;;6.25;3.20;;;6.90;99.90;;;;;;5019845;28;20107;-85
2023/12/13 10:26:03;;;;;;;8.07;3.25;;;6.90;99.90;;;;;;5010475;28;20061;-86
2023/12/13 10:28:51;;;;;;;10.90;3.45;;;7.10;99.90;;;;;;5018428;28;20168;-86
2023/12/13 10:32:09;;;;;;;8.68;4.13;;;7.40;99.90;;;;;;4932596;29;20048;-85
2023/12/13 10:35:36;;;;;;;;;;;;;;;;;;;;;
2023/12/13 10:38:36;;;;;;;7.00;2.83;;;8.60;99.90;;;;;;5007966;28;20046;-87
2023/12/13 10:41:55;;;;;;;2.92;2.38;;;9.90;99.90;;;;;;5005048;28;20049;-87
2023/12/13 10:44:51;;;;;;;4.78;1.52;;;11.30;99.90;;;;;;5009161;28;20038;-86
2023/12/13 10:48:22;;;;;;;3.60;1.50;;;11.60;99.90;;;;;;5009892;28;20030;-88
2023/12/13 10:51:28;;;;;;;4.15;1.67;;;11.30;99.90;;;;;;5014774;28;20467;-83
2023/12/13 10:54:18;;;;;;;2.47;1.55;;;10.40;99.90;;;;;;5001743;28;20599;-86
2023/12/13 10:57:12;;;;;;;4.22;1.50;;;9.60;65.70;;;;;;5010036;28;20144;-84
2023/12/13 11:00:32;;;;;;;3.92;1.70;;;9.60;99.90;;;;;;5011025;28;20052;-84
2023/12/13 11:03:41;;;;;;;5.22;1.80;;;9.50;1.00;;;;;;5017139;28;20060;-79
2023/12/13 11:06:30;;;;;;;6.07;2.10;;;9.00;27.70;;;;;;5013468;28;20046;-85
2023/12/13 11:09:18;;;;;;;4.57;2.20;;;9.30;6.70;;;;;;5014484;28;20049;-82
2023/12/13 11:12:10;;;;;;;4.43;2.00;;;9.60;1.00;;;;;;5007471;28;20042;-85
2023/12/13 11:14:59;;;;;;;4.50;1.70;;;10.40;99.90;;;;;;5012309;28;20057;-81
2023/12/13 11:17:54;;;;;;;2.65;1.70;;;9.90;99.90;;;;;;5013238;28;20069;-84
2023/12/13 11:20:48;;;;;;;3.30;1.90;;;9.10;1.00;;;;;;4995765;28;20041;-84
2023/12/13 11:23:38;;;;;;;3.72;1.73;;;8.80;1.00;;;;;;5012163;28;20434;-85
2023/12/13 11:26:32;;;;;;;4.10;1.70;;;8.70;1.00;;;;;;5014338;28;20041;-84
2023/12/13 11:29:27;;;;;;;4.85;1.80;;;8.40;4.70;;;;;;5016302;28;20049;-86
2023/12/13 11:32:14;;;;;;;5.22;1.85;;;8.40;81.40;;;;;;4989677;28;20454;-86
2023/12/13 11:35:14;;;;;;;5.18;1.80;;;8.40;99.90;;;;;;5017840;28;20175;-85
2023/12/13 11:38:03;;;;;;;4.47;1.80;;;8.40;90.50;;;;;;5000749;28;20065;-85
2023/12/13 11:40:51;;;;;;;4.10;2.03;;;8.50;99.90;;;;;;5016102;28;20054;-85
2023/12/13 11:43:39;;;;;;;3.83;2.00;;;8.40;78.90;;;;;;4999146;28;20042;-84
2023/12/13 11:46:29;;;;;;;4.32;1.80;;;8.30;99.90;;;;;;4991833;28;20045;-82
2023/12/13 11:49:19;;;;;;;5.20;1.90;;;8.50;99.90;;;;;;5012992;28;20057;-80
2023/12/13 11:52:07;;;;;;;2.97;1.60;;;8.80;99.90;;;;;;5007303;28;20474;-85
2023/12/13 11:54:57;;;;;;;3.05;1.65;;;8.90;24.20;;;;;;4997693;28;20050;-83
2023/12/13 11:57:44;;;;;;;2.22;1.67;;;9.00;1.00;;;;;;5010095;28;20050;-80
2023/12/13 12:00:32;;;;;;;3.40;1.50;;;9.10;1.00;;;;;;5012319;28;20057;-86
2023/12/13 12:03:24;;;;;;;3.55;1.42;;;9.10;1.00;;;;;;5010445;28;20052;-85
2023/12/13 12:06:16;;;;;;;4.03;1.60;;;9.20;1.00;;;;;;4997894;28;20478;-84
2023/12/13 12:09:18;;;;;;;3.95;1.30;;;9.20;1.00;;;;;;5006409;28;20046;-85
2023/12/13 12:12:10;;;;;;;6.50;1.60;;;8.90;99.90;;;;;;5010830;28;20682;-84
2023/12/13 12:15:07;;;;;;;4.15;1.63;;;8.90;1.00;;;;;;4996278;28;20398;-84
2023/12/13 12:17:55;;;;;;;4.78;1.33;;;8.70;1.00;;;;;;5012768;28;20115;-83
2023/12/13 12:20:45;;;;;;;4.25;1.30;;;8.60;1.00;;;;;;5013331;28;20088;-85
2023/12/13 12:23:41;;;;;;;2.13;1.45;;;8.60;1.00;;;;;;5012356;28;20719;-83
2023/12/13 12:26:34;;;;;;;3.97;1.48;;;8.70;31.50;;;;;;5012626;28;20058;-85
2023/12/13 12:29:21;;;;;;;3.72;1.38;;;8.70;28.80;;;;;;5016815;28;20320;-83
2023/12/13 12:32:12;;;;;;;3.50;1.83;;;8.60;99.90;;;;;;4998665;28;20046;-83
2023/12/13 12:35:10;;;;;;;5.03;1.52;;;8.80;99.90;;;;;;5016787;28;20139;-83
2023/12/13 12:37:59;;;;;;;3.40;1.48;;;8.80;99.90;;;;;;5012422;28;20050;-84
2023/12/13 12:41:07;;;;;;;4.03;1.42;;;8.50;97.80;;;;;;5015298;28;20045;-83
2023/12/13 12:43:55;;;;;;;5.68;1.20;;;8.30;96.20;;;;;;5006578;28;20050;-84
2023/12/13 12:46:44;;;;;;;2.40;0.98;;;8.30;99.90;;;;;;5010150;28;20038;-82
2023/12/13 12:49:32;;;;;;;2.83;1.08;;;8.30;73.00;;;;;;5006930;28;20038;-83
2023/12/13 12:52:20;;;;;;;2.28;1.08;;;8.20;99.90;;;;;;5013599;28;20053;-83
2023/12/13 12:55:08;;;;;;;1.15;1.05;;;8.20;99.90;;;;;;4997634;28;20042;-82
2023/12/13 12:57:55;;;;;;;2.08;1.00;;;8.20;99.90;;;;;;5015246;28;20608;-79
2023/12/13 13:00:43;;;;;;;1.60;0.80;;;8.20;99.90;;;;;;5015587;28;20061;-82
2023/12/13 13:03:30;;;;;;;2.70;1.10;;;8.40;99.50;;;;;;5014575;28;20057;-82
2023/12/13 13:06:27;;;;;;;2.92;0.90;;;8.60;62.50;;;;;;4998779;28;20358;-81
2023/12/13 13:09:22;;;;;;;2.38;1.05;;;9.50;26.80;;;;;;5013283;28;20037;-82
2023/12/13 13:12:09;;;;;;;2.35;1.38;;;10.30;1.00;;;;;;5017282;28;20163;-83
2023/12/13 13:14:57;;;;;;;5.15;1.20;;;10.10;99.90;;;;;;5013522;28;20042;-84
2023/12/13 13:17:44;;;;;;;2.45;1.08;;;9.60;99.90;;;;;;5017580;28;20060;-83
2023/12/13 13:20:34;;;;;;;3.13;1.00;;;9.10;99.90;;;;;;5010988;28;20108;-82
2023/12/13 13:23:25;;;;;;;2.15;1.42;;;8.80;1.00;;;;;;5010695;28;20099;-83
2023/12/13 13:26:14;;;;;;;2.15;1.25;;;8.50;99.90;;;;;;5001948;28;20168;-83
2023/12/13 13:29:02;;;;;;;2.33;1.38;;;8.50;99.90;;;;;;5011678;28;20053;-83
2023/12/13 13:31:50;;;;;;;1.02;1.02;;;8.30;99.90;;;;;;5011907;28;20067;-85
2023/12/13 13:34:39;;;;;;;2.20;1.55;;;8.30;1.00;;;;;;5006803;28;20052;-83
2023/12/13 13:37:27;;;;;;;8.23;2.05;;;8.30;1.00;;;;;;5010457;28;20378;-83
2023/12/13 13:40:15;;;;;;;1.30;1.17;;;8.40;1.00;;;;;;5013548;28;20149;-84
2023/12/13 13:43:07;;;;;;;5.45;1.50;;;8.50;1.00;;;;;;5012901;28;20392;-85
2023/12/13 13:45:57;;;;;;;1.45;0.98;;;8.30;1.00;;;;;;4990606;28;20425;-84
2023/12/13 13:48:44;;;;;;;4.40;1.45;;;8.30;1.00;;;;;;5010054;28;20042;-83
2023/12/13 13:51:33;;;;;;;3.33;1.40;;;8.10;1.00;;;;;;4995479;28;20042;-86
2023/12/13 13:54:21;;;;;;;1.77;0.73;;;7.20;99.90;;;;;;5010278;28;20121;-85
2023/12/13 13:57:11;;;;;;;1.00;0.93;;;6.50;1.00;;;;;;4989864;28;20088;-84
2023/12/13 13:59:58;;;;;;;0.90;0.73;;;6.10;99.90;;;;;;5017061;28;20046;-85
2023/12/13 14:02:56;;;;;;;0.75;0.60;;;6.00;99.90;;;;;;5018909;28;20045;-87
2023/12/13 14:05:44;;;;;;;1.23;0.82;;;5.90;99.90;;;;;;5011238;28;20053;-87
2023/12/13 14:08:32;;;;;;;1.73;1.25;;;5.90;99.90;;;;;;4997908;28;20039;-85
2023/12/13 14:11:19;;;;;;;0.95;0.95;;;5.80;99.90;;;;;;5011981;28;20427;-86
2023/12/13 14:14:11;;;;;;;1.70;0.80;;;5.80;99.90;;;;;;5011489;28;20041;-87
2023/12/13 14:17:01;;;;;;;5.88;3.20;;;5.80;99.90;;;;;;5016119;28;20131;-86
2023/12/13 14:19:49;;;;;;;2.33;1.40;;;5.80;99.90;;;;;;5009102;28;20042;-87
2023/12/13 14:22:36;;;;;;;1.05;0.90;;;5.80;99.90;;;;;;5007048;28;20064;-85
2023/12/13 14:25:24;;;;;;;2.97;0.90;;;5.90;99.90;;;;;;5011678;28;20053;-86
2023/12/13 14:28:12;;;;;;;1.98;1.23;;;5.90;99.90;;;;;;5012522;28;20049;-82
2023/12/13 14:31:00;;;;;;;1.80;1.30;;;5.90;99.90;;;;;;5004087;28;20446;-86
2023/12/13 14:33:48;;;;;;;4.10;1.33;;;5.90;99.90;;;;;;4996854;28;20109;-87
2023/12/13 14:36:38;;;;;;;1.85;1.20;;;5.90;99.90;;;;;;5003118;28;20477;-82
2023/12/13 14:39:26;;;;;;;4.40;1.35;;;5.90;99.90;;;;;;5018774;28;20180;-85
2023/12/13 14:42:13;;;;;;;4.38;1.30;;;5.90;99.90;;;;;;5017605;28;20049;-86
2023/12/13 14:45:02;;;;;;;6.38;1.13;;;5.90;99.90;;;;;;4996741;28;20446;-86
2023/12/13 14:47:49;;;;;;;1.83;1.00;;;5.90;99.90;;;;;;5007047;28;20344;-87
2023/12/13 14:50:41;;;;;;;3.20;1.20;;;5.90;99.90;;;;;;5010588;28;20046;-86
2023/12/13 14:53:31;;;;;;;1.15;1.02;;;5.90;99.90;;;;;;4999653;28;20385;-86
2023/12/13 14:56:20;;;;;;;2.70;1.05;;;5.80;99.90;;;;;;5017801;28;20104;-85
2023/12/13 14:59:10;;;;;;;6.82;1.10;;;5.80;99.90;;;;;;5014936;28;20481;-87